Scarborough, ME (04070)

8:18 AM EST on February 20, 2018 (GMT -0500)
Eastern Village - Scarborough | | Change Station
Active Advisory: Special Statement

Elev 42 ft 43.58 °N, 70.34 °W | Updated 10 seconds ago

Fog
Fog
40.6 °F
Feels Like 41 °F
N
0.0
Wind Variable Wind from SSE
Gusts 0.0 mph

Today
High -- | Low -- °F
--% Chance of Precip.
Yesterday
High -- | Low -- °F
Precip. -- in
Pressure 30.25 in
Visibility 1.0 miles
Clouds Overcast 300 ft
Windchill 41 °F
Dew Point 39 °F
Humidity 95%
Rainfall 0.00 in
Snow Depth Not available.
6:32 AM 5:18 PM
Waxing Crescent, 21% visible
METAR KPWM 201251Z VRB04KT 1SM BR OVC003 04/04 A3025 RMK AO2 SLP243 T00390039
Pressure 30.25 in
Visibility 1.0 miles
Clouds Overcast 300 ft
Windchill 41 °F
Dew Point 39 °F
Humidity 95%
Rainfall 0.00 in
Snow Depth Not available.
6:32 AM 5:18 PM
Waxing Crescent, 21% visible
METAR KPWM 201251Z VRB04KT 1SM BR OVC003 04/04 A3025 RMK AO2 SLP243 T00390039

Get Your Daily Forecast Email!

Thanks for signing up!

Be on the lookout for a verification email in your inbox.

You'll start receiving severe weather alerts in your inbox..

×

10-Day Weather Forecast

Almanac

Astronomy

Feb. 20, 2018 Rise Set
Actual Time
Civil Twilight
Nautical Twilight
Astronomical Twilight
Moon
Length of Visible Light
Length of Day
Tomorrow will be .
, % of the Moon is Illuminated

Today's Extremes

State Highs State Lows

Community

WunderPhotos

Category 6

Welcome to Category 6. This is the collective home for Weather Underground's featured writeups by Dr. Jeff Masters (right), Bob Henson (left), Chris Burt, and other regular contributors.

Nearby

Air Quality

  Air Quality AQ Index Pollutant
Not available.

Snow Depth

Station Depth Elevation

Earthquake Activity

City Distance Mag. Time & Date
Minimum magnitude displayed is 2.5.

Coastal Water Temperatures

Place Temperature

Stations

Nearby Weather Stations

Station Location Temp. Windchill Dew Point Humidity Wind Precip. Elev Updated Type
                   

Watches & Warnings

Special Statement
Issued: 6:35 AM EST Feb. 20, 2018 – National Weather Service

... Patchy dense fog will continue for the next few hours...

Warm air over the snowpack has resulted in patchy dense fog
across the region. Expect visibilities to drop to less than one
quarter mile at times. Fog will continue for the next few hours
and begin to lift by mid morning. Motorists are encouraged to be
prepared for rapidly changing visibilities


635 am EST Tue Feb 20 2018

... Patchy dense fog will continue for the next few hours...

Warm air over the snowpack has resulted in patchy dense fog
across the region. Expect visibilities to drop to less than one
quarter mile at times. Fog will continue for the next few hours
and begin to lift by mid morning. Motorists are encouraged to be
prepared for rapidly changing visibilities